Terminal Aerodrome Forecast
Issued by NWS Brownsville, TX

Home | Current Version | Previous Version | Text Only | Print | Product List | Glossary On
Versions: 1 2 3 4 5 6 7 8 9 10 11 12 13
000
FTUS44 KBRO 041126
TAFMFE
TAF
KMFE 041126Z 0412/0512 13010KT P6SM BKN060
      TEMPO 0412/0413 BKN018
     FM041500 13017G25KT P6SM SCT035
     FM050200 12011KT P6SM SCT040
     FM050600 12010KT P6SM BKN025=

USA.gov is the U.S. government's official web portal to all federal, state and local government web resources and services.